Time;durP1;ratioP1;P1;durP2;ratioP2;P2;SDS_P1;SDS_P2;PMS_P1;PMS_P2;Temp;Humidity;BMP_temperature;BMP_pressure;BME280_temperature;BME280_humidity;BME280_pressure;Samples;Min_cycle;Max_cycle;Signal;HPM_P1;HPM_P2
2023/10/05 00:01:24;;;;;;;;;8.33;8.00;;;;;16.42;100.00;102455.41;5015155;28;45841;-74
2023/10/05 00:03:52;;;;;;;;;9.00;7.67;;;;;16.41;100.00;102451.84;5012669;28;45538;-77
2023/10/05 00:06:25;;;;;;;;;12.33;7.00;;;;;16.39;100.00;102448.25;5020937;28;45541;-74
2023/10/05 00:08:53;;;;;;;;;12.67;8.67;;;;;16.38;100.00;102437.59;5054694;28;45481;-74
2023/10/05 00:11:28;;;;;;;;;8.67;8.67;;;;;16.39;100.00;102426.94;5039688;28;46754;-77
2023/10/05 00:13:58;;;;;;;;;13.33;10.00;;;;;16.38;100.00;102424.25;5037797;28;45349;-78
2023/10/05 00:16:37;;;;;;;;;4.67;4.00;;;;;16.37;100.00;102428.69;5037709;28;45463;-78
2023/10/05 00:19:11;;;;;;;;;9.00;7.00;;;;;16.38;100.00;102441.13;5041669;28;45394;-76
2023/10/05 00:21:39;;;;;;;;;9.00;9.00;;;;;16.36;100.00;102439.34;5043975;28;46512;-76
2023/10/05 00:24:06;;;;;;;;;10.33;8.00;;;;;16.34;100.00;102449.97;5038734;28;45457;-76
2023/10/05 00:26:35;;;;;;;;;12.33;8.00;;;;;16.32;100.00;102442.84;5038537;28;45516;-77
2023/10/05 00:29:20;;;;;;;;;11.00;9.00;;;;;16.32;100.00;102442.84;5045201;28;45447;-76
2023/10/05 00:31:47;;;;;;;;;9.67;9.33;;;;;16.31;100.00;102438.38;5037594;28;48444;-77
2023/10/05 00:34:17;;;;;;;;;10.33;9.00;;;;;16.31;100.00;102447.28;5021014;28;45965;-75
2023/10/05 00:36:45;;;;;;;;;11.00;8.00;;;;;16.32;100.00;102441.06;5044094;28;45313;-76
2023/10/05 00:39:11;;;;;;;;;10.67;8.00;;;;;16.31;100.00;102451.72;5040564;28;45654;-75
2023/10/05 00:41:37;;;;;;;;;7.00;7.00;;;;;16.30;100.00;102450.81;5037142;28;48381;-76
2023/10/05 00:44:05;;;;;;;;;9.00;7.00;;;;;16.28;100.00;102454.31;5046252;28;45415;-76
2023/10/05 00:46:32;;;;;;;;;9.00;7.00;;;;;16.24;100.00;102440.97;5038478;28;45289;-75
2023/10/05 00:49:05;;;;;;;;;10.00;9.00;;;;;16.22;100.00;102450.69;5020486;28;45461;-76
2023/10/05 00:51:33;;;;;;;;;11.00;9.00;;;;;16.22;100.00;102441.81;5037957;28;46594;-75
2023/10/05 00:54:04;;;;;;;;;10.67;8.00;;;;;16.20;100.00;102431.16;5037817;28;45341;-76
2023/10/05 00:56:35;;;;;;;;;9.00;7.67;;;;;16.21;100.00;102430.25;5037038;28;45319;-76
2023/10/05 00:59:06;;;;;;;;;9.00;8.00;;;;;16.19;100.00;102436.44;5037552;28;45726;-76
2023/10/05 01:02:21;;;;;;;;;9.33;6.33;;;;;16.18;100.00;102445.31;5038326;28;48693;-75
2023/10/05 01:05:15;;;;;;;;;6.00;6.00;;;;;16.17;100.00;102456.84;5036124;28;45364;-76
2023/10/05 01:07:18;;;;;;;;;10.33;8.67;;;;;16.15;100.00;102454.16;5052465;28;45339;-75
2023/10/05 01:10:01;;;;;;;;;10.67;8.33;;;;;16.16;100.00;102449.72;5054735;28;45540;-76
2023/10/05 01:14:58;;;;;;;;;12.33;8.67;;;;;16.19;100.00;102455.09;5056535;28;45570;-76
2023/10/05 01:17:28;;;;;;;;;10.00;8.67;;;;;16.18;100.00;102451.53;5056935;28;45554;-76
2023/10/05 01:19:56;;;;;;;;;9.67;8.00;;;;;16.21;100.00;102454.25;5058980;28;45425;-77
2023/10/05 01:22:23;;;;;;;;;16.00;8.33;;;;;16.22;100.00;102447.16;5057442;28;45966;-76
2023/10/05 01:24:49;;;;;;;;;11.00;8.00;;;;;16.23;100.00;102449.81;5057905;28;45308;-75
2023/10/05 01:27:15;;;;;;;;;16.00;9.00;;;;;16.32;100.00;102454.41;5057286;28;45308;-75
2023/10/05 01:29:40;;;;;;;;;13.00;11.33;;;;;16.34;100.00;102449.06;5058020;28;45467;-76
2023/10/05 01:32:07;;;;;;;;;11.00;9.00;;;;;16.33;100.00;102431.28;5057582;28;45961;-76
2023/10/05 01:34:32;;;;;;;;;9.00;7.33;;;;;16.32;100.00;102425.06;5057232;28;45475;-76
2023/10/05 01:36:58;;;;;;;;;8.67;7.33;;;;;16.33;100.00;102418.84;5057732;28;45562;-75
2023/10/05 01:39:25;;;;;;;;;12.00;7.33;;;;;16.35;100.00;102414.47;5057701;28;45353;-76
2023/10/05 01:41:50;;;;;;;;;8.67;8.67;;;;;16.34;100.00;102409.09;5036329;28;46163;-75
2023/10/05 01:44:16;;;;;;;;;10.67;9.67;;;;;16.35;100.00;102413.53;5055646;28;45338;-75
2023/10/05 01:46:42;;;;;;;;;8.00;7.00;;;;;16.32;100.00;102401.09;5057310;28;45902;-75
2023/10/05 01:49:08;;;;;;;;;10.33;9.33;;;;;16.30;100.00;102397.50;5057392;28;45298;-77
2023/10/05 01:51:34;;;;;;;;;8.67;8.00;;;;;16.30;100.00;102412.59;5056943;28;45674;-77
2023/10/05 01:54:11;;;;;;;;;11.00;7.00;;;;;16.32;100.00;102414.41;5057282;28;45233;-76
2023/10/05 01:56:39;;;;;;;;;8.33;7.00;;;;;16.33;100.00;102413.53;5056684;28;45448;-76
2023/10/05 01:59:06;;;;;;;;;10.33;9.33;;;;;16.35;100.00;102425.13;5055959;28;45239;-76
2023/10/05 02:01:36;;;;;;;;;9.33;8.00;;;;;16.33;100.00;102417.97;5056428;28;46829;-75
2023/10/05 02:04:02;;;;;;;;;8.00;7.00;;;;;16.34;100.00;102417.97;5056184;28;45400;-76
2023/10/05 02:06:28;;;;;;;;;7.67;6.33;;;;;16.35;100.00;102419.78;5054645;28;45497;-76
2023/10/05 02:08:54;;;;;;;;;6.33;5.00;;;;;16.35;100.00;102418.88;5055108;28;46191;-75
2023/10/05 02:11:24;;;;;;;;;8.67;7.67;;;;;16.38;100.00;102414.47;5060095;28;46551;-76
2023/10/05 02:13:50;;;;;;;;;12.67;8.00;;;;;16.42;100.00;102405.66;5055550;28;45517;-76
2023/10/05 02:16:21;;;;;;;;;6.00;4.67;;;;;16.40;100.00;102411.81;5056743;28;45392;-76
2023/10/05 02:18:47;;;;;;;;;10.33;5.67;;;;;16.43;100.00;102406.53;5059509;28;45351;-77
2023/10/05 02:21:17;;;;;;;;;6.00;6.00;;;;;16.45;100.00;102404.78;5056180;28;46395;-76
2023/10/05 02:23:50;;;;;;;;;8.00;5.33;;;;;16.45;100.00;102407.44;5054695;28;45315;-76
2023/10/05 02:26:34;;;;;;;;;6.67;3.67;;;;;16.45;100.00;102408.34;5055024;28;46298;-76
2023/10/05 02:29:13;;;;;;;;;8.67;4.00;;;;;16.44;100.00;102403.88;5059391;28;45649;-77
2023/10/05 02:31:50;;;;;;;;;5.00;5.00;;;;;16.44;100.00;102403.00;5054466;28;45831;-76
2023/10/05 02:34:17;;;;;;;;;5.00;5.00;;;;;16.45;100.00;102403.00;5055096;28;45523;-76
2023/10/05 02:36:43;;;;;;;;;3.67;3.67;;;;;16.46;100.00;102404.81;5055481;28;45590;-76
2023/10/05 02:39:08;;;;;;;;;5.33;4.67;;;;;16.48;100.00;102410.16;5059066;28;45750;-76
2023/10/05 02:41:43;;;;;;;;;3.00;3.00;;;;;16.42;100.00;102399.44;5056253;28;45776;-75
2023/10/05 02:44:23;;;;;;;;;5.33;5.33;;;;;16.42;100.00;102404.75;5056090;28;45309;-77
2023/10/05 02:46:48;;;;;;;;;6.00;4.00;;;;;16.43;100.00;102406.53;5040432;28;45560;-76
2023/10/05 02:49:18;;;;;;;;;7.67;7.00;;;;;16.43;100.00;102406.53;5056047;28;46451;-77
2023/10/05 02:51:44;;;;;;;;;7.00;4.33;;;;;16.49;100.00;102409.28;5055213;28;45590;-77
2023/10/05 02:54:10;;;;;;;;;6.33;4.00;;;;;16.50;100.00;102400.41;5054948;28;45516;-77
2023/10/05 02:56:37;;;;;;;;;7.33;4.67;;;;;16.46;100.00;102406.59;5054773;28;45409;-77
2023/10/05 02:59:07;;;;;;;;;5.67;5.00;;;;;16.52;100.00;102400.44;5056447;28;45228;-77
2023/10/05 03:01:33;;;;;;;;;7.00;5.00;;;;;16.53;100.00;102394.22;5055584;28;45694;-77
2023/10/05 03:04:03;;;;;;;;;5.00;5.00;;;;;16.52;100.00;102395.09;5055169;28;45966;-77
2023/10/05 03:06:28;;;;;;;;;5.00;5.00;;;;;16.52;100.00;102398.66;5055886;28;45163;-77
2023/10/05 03:08:54;;;;;;;;;5.33;4.00;;;;;16.52;100.00;102396.00;5056125;28;45420;-77
2023/10/05 03:11:19;;;;;;;;;11.67;6.00;;;;;16.53;100.00;102397.78;5056063;28;45905;-77
2023/10/05 03:13:46;;;;;;;;;7.00;4.00;;;;;16.52;100.00;102390.66;5054604;28;45587;-77
2023/10/05 03:16:12;;;;;;;;;6.67;6.00;;;;;16.49;100.00;102385.28;5056337;28;45427;-77
2023/10/05 03:18:41;;;;;;;;;7.33;6.67;;;;;16.48;100.00;102394.16;5057356;28;45419;-77
2023/10/05 03:21:13;;;;;;;;;5.33;4.67;;;;;16.45;100.00;102386.13;5056260;28;46823;-77
2023/10/05 03:23:42;;;;;;;;;8.00;5.00;;;;;16.45;100.00;102378.13;5053681;28;45376;-76
2023/10/05 03:26:13;;;;;;;;;7.67;5.00;;;;;16.40;100.00;102385.16;5054447;28;45374;-77
2023/10/05 03:28:41;;;;;;;;;6.33;5.67;;;;;16.35;100.00;102395.81;5058567;28;45315;-77
2023/10/05 03:31:31;;;;;;;;;7.00;5.67;;;;;16.31;100.00;102380.63;5056107;28;45517;-77
2023/10/05 03:33:57;;;;;;;;;5.33;5.33;;;;;16.27;100.00;102376.13;5054525;28;45581;-77
2023/10/05 03:36:22;;;;;;;;;6.00;3.67;;;;;16.23;100.00;102385.84;5056014;28;45415;-77
2023/10/05 03:38:55;;;;;;;;;3.00;3.00;;;;;16.18;100.00;102384.00;5060437;28;45546;-76
2023/10/05 03:41:26;;;;;;;;;4.67;4.33;;;;;16.13;100.00;102378.63;5055820;28;46559;-76
2023/10/05 03:43:53;;;;;;;;;7.00;4.00;;;;;16.10;100.00;102381.25;5058224;28;45470;-76
2023/10/05 03:46:19;;;;;;;;;4.00;4.00;;;;;16.06;100.00;102387.41;5057901;28;45467;-77
2023/10/05 03:48:44;;;;;;;;;6.00;4.67;;;;;16.05;100.00;102398.06;5058363;28;45482;-75
2023/10/05 03:51:15;;;;;;;;;7.67;6.00;;;;;15.97;100.00;102412.16;5057738;28;46630;-75
2023/10/05 03:53:51;;;;;;;;;6.00;5.00;;;;;15.93;100.00;102414.78;5072405;27;45325;-75
2023/10/05 03:56:21;;;;;;;;;5.67;5.00;;;;;15.88;100.00;102419.16;5058183;28;45603;-77
2023/10/05 03:58:50;;;;;;;;;5.33;5.00;;;;;15.85;100.00;102419.97;5058070;28;45640;-77
2023/10/05 04:01:15;;;;;;;;;7.33;5.33;;;;;15.81;100.00;102425.22;5056957;28;45951;-76
2023/10/05 04:03:46;;;;;;;;;5.67;4.67;;;;;15.78;100.00;102415.44;5058809;28;45390;-76
2023/10/05 04:06:17;;;;;;;;;9.00;7.00;;;;;15.77;100.00;102412.78;5055833;28;45538;-75
2023/10/05 04:08:49;;;;;;;;;7.00;7.00;;;;;15.72;100.00;102412.69;5053307;28;45523;-75
2023/10/05 04:11:17;;;;;;;;;10.33;7.00;;;;;15.70;100.00;102401.09;5058660;28;47037;-75
2023/10/05 04:13:43;;;;;;;;;8.00;6.67;;;;;15.66;100.00;102409.94;5056659;28;45564;-76
2023/10/05 04:16:17;;;;;;;;;7.00;5.00;;;;;15.63;100.00;102408.13;5057273;28;45254;-77
2023/10/05 04:18:46;;;;;;;;;9.33;5.67;;;;;15.62;100.00;102414.28;5059377;28;45491;-76
2023/10/05 04:21:11;;;;;;;;;7.00;6.00;;;;;15.62;100.00;102410.72;5058738;28;45823;-76
2023/10/05 04:23:36;;;;;;;;;6.67;4.33;;;;;15.60;100.00;102410.69;5057333;28;64056;-76
2023/10/05 04:26:02;;;;;;;;;7.67;6.33;;;;;15.59;100.00;102418.66;5049520;28;45459;-76
2023/10/05 04:28:33;;;;;;;;;10.33;7.00;;;;;15.57;100.00;102429.28;5060211;28;45262;-76
2023/10/05 04:30:59;;;;;;;;;7.33;5.00;;;;;15.54;100.00;102428.34;5057939;28;45934;-76
2023/10/05 04:33:26;;;;;;;;;9.33;7.33;;;;;15.54;100.00;102426.56;5057940;28;45240;-77
2023/10/05 04:35:55;;;;;;;;;5.00;4.33;;;;;15.51;100.00;102422.97;5058644;28;45498;-75
2023/10/05 04:38:23;;;;;;;;;9.33;7.00;;;;;15.43;100.00;102418.41;5062362;28;45398;-77
2023/10/05 04:40:52;;;;;;;;;11.00;6.33;;;;;15.39;100.00;102416.59;5060071;28;48543;-76
2023/10/05 04:43:20;;;;;;;;;13.33;7.33;;;;;15.34;100.00;102415.63;5058084;28;45352;-76
2023/10/05 04:45:46;;;;;;;;;7.33;5.33;;;;;15.30;100.00;102420.84;5058286;28;45295;-76
2023/10/05 04:48:12;;;;;;;;;10.33;7.33;;;;;15.26;100.00;102413.69;5058029;28;45562;-76
2023/10/05 04:50:40;;;;;;;;;4.00;4.00;;;;;15.19;100.00;102407.38;5058934;28;46613;-75
2023/10/05 04:53:09;;;;;;;;;12.00;6.67;;;;;15.16;100.00;102416.19;5057044;28;46165;-76
2023/10/05 04:55:41;;;;;;;;;7.00;5.67;;;;;15.12;100.00;102410.78;5055756;28;45432;-76
2023/10/05 05:00:53;;;;;;;;;5.00;5.00;;;;;15.04;100.00;102409.75;5053798;28;45546;-75
2023/10/05 05:08:32;;;;;;;;;7.67;5.00;;;;;14.88;100.00;102408.56;5054815;28;45474;-75
2023/10/05 05:11:00;;;;;;;;;7.67;6.00;;;;;14.86;100.00;102407.63;5057504;28;46643;-76
2023/10/05 05:13:27;;;;;;;;;8.00;6.00;;;;;14.80;100.00;102408.41;5056005;28;45498;-77
2023/10/05 05:15:52;;;;;;;;;6.00;6.00;;;;;14.77;100.00;102407.47;5057032;28;45543;-74
2023/10/05 05:18:19;;;;;;;;;6.00;5.67;;;;;14.73;100.00;102416.25;5057254;28;45529;-76
2023/10/05 05:20:45;;;;;;;;;7.00;7.00;;;;;14.70;100.00;102413.53;5056999;28;48333;-77
2023/10/05 05:23:13;;;;;;;;;5.33;5.33;;;;;14.68;100.00;102409.09;5040128;28;45589;-75
2023/10/05 05:25:39;;;;;;;;;7.00;5.00;;;;;14.66;100.00;102404.63;5056160;28;45545;-74
2023/10/05 05:28:05;;;;;;;;;8.00;6.67;;;;;14.61;100.00;102407.19;5059333;28;45541;-75
2023/10/05 05:30:36;;;;;;;;;6.00;4.00;;;;;14.55;100.00;102401.75;5058075;28;45846;-73
2023/10/05 05:33:02;;;;;;;;;6.00;4.67;;;;;14.53;100.00;102405.22;5057800;28;45304;-73
2023/10/05 05:35:28;;;;;;;;;6.00;6.00;;;;;14.49;100.00;102404.28;5055326;28;45564;-74
2023/10/05 05:37:56;;;;;;;;;9.67;6.33;;;;;14.47;100.00;102402.41;5056002;28;47026;-74
2023/10/05 05:40:21;;;;;;;;;10.00;6.00;;;;;14.45;100.00;102399.75;5062022;28;47506;-73
2023/10/05 05:42:47;;;;;;;;;5.67;5.67;;;;;14.41;100.00;102408.50;5053239;28;56277;-73
2023/10/05 05:45:15;;;;;;;;;6.00;5.00;;;;;14.41;100.00;102414.72;5052250;28;45435;-69
2023/10/05 05:47:42;;;;;;;;;7.00;7.00;;;;;14.38;100.00;102427.03;5055578;28;45519;-71
2023/10/05 05:50:08;;;;;;;;;9.00;7.00;;;;;14.37;100.00;102418.16;5055914;28;45982;-71
2023/10/05 05:52:35;;;;;;;;;10.00;7.00;;;;;14.39;100.00;102431.50;5037041;28;45414;-71
2023/10/05 05:55:09;;;;;;;;;7.00;7.00;;;;;14.38;100.00;102424.38;5053250;28;45479;-73
2023/10/05 05:57:35;;;;;;;;;8.33;5.00;;;;;14.36;100.00;102434.09;5055807;28;45752;-72
2023/10/05 06:00:10;;;;;;;;;7.67;7.00;;;;;14.34;100.00;102436.72;5053756;28;46695;-72
2023/10/05 06:02:39;;;;;;;;;7.67;6.00;;;;;14.33;100.00;102440.25;5054167;28;45945;-72
2023/10/05 06:05:08;;;;;;;;;8.33;6.33;;;;;14.34;100.00;102444.69;5052879;28;45457;-72
2023/10/05 06:07:33;;;;;;;;;12.00;8.33;;;;;14.36;100.00;102450.03;5054885;28;45446;-73
2023/10/05 06:09:58;;;;;;;;;10.33;6.33;;;;;14.36;100.00;102452.69;5053797;28;45665;-72
2023/10/05 06:12:24;;;;;;;;;6.00;6.00;;;;;14.37;100.00;102457.13;5053565;28;45537;-73
2023/10/05 06:14:49;;;;;;;;;6.00;6.00;;;;;14.42;100.00;102455.47;5051918;28;60048;-74
2023/10/05 06:17:14;;;;;;;;;10.00;6.67;;;;;14.44;100.00;102459.09;5053321;28;60145;-75
2023/10/05 06:19:40;;;;;;;;;5.00;4.67;;;;;14.48;100.00;102449.41;5051125;28;68918;-73
2023/10/05 06:22:06;;;;;;;;;12.00;8.33;;;;;14.41;100.00;102456.34;5052355;28;45468;-75
2023/10/05 06:24:32;;;;;;;;;10.50;7.00;;;;;14.37;100.00;102467.75;5037514;28;45449;-74
2023/10/05 06:27:00;;;;;;;;;9.75;7.00;;;;;14.33;100.00;102460.63;5054105;28;45547;-75
2023/10/05 06:29:25;;;;;;;;;9.00;6.33;;;;;14.29;100.00;102450.78;5056837;28;46004;-75
2023/10/05 06:31:51;;;;;;;;;12.67;7.67;;;;;14.23;100.00;102462.16;5052699;28;45566;-76
2023/10/05 06:34:16;;;;;;;;;13.00;11.67;;;;;14.22;100.00;102452.41;5052363;28;45479;-75
2023/10/05 06:36:42;;;;;;;;;11.00;10.00;;;;;14.25;100.00;102433.84;5053286;28;45371;-75
2023/10/05 06:39:09;;;;;;;;;6.67;6.67;;;;;14.34;100.00;102452.66;5052791;28;45775;-73
2023/10/05 06:41:36;;;;;;;;;10.33;9.00;;;;;14.37;100.00;102465.09;5053386;28;45463;-74
2023/10/05 06:44:02;;;;;;;;;10.33;9.33;;;;;14.40;100.00;102479.38;5049527;28;45592;-74
2023/10/05 06:46:28;;;;;;;;;10.67;8.00;;;;;14.47;100.00;102476.84;5052799;28;45545;-74
2023/10/05 06:48:54;;;;;;;;;10.00;8.33;;;;;14.53;100.00;102477.00;5058322;28;47308;-75
2023/10/05 06:51:26;;;;;;;;;12.33;8.33;;;;;14.63;100.00;102474.56;5052504;28;45368;-73
2023/10/05 06:53:52;;;;;;;;;8.00;8.00;;;;;14.76;100.00;102478.38;5050751;28;45564;-74
2023/10/05 06:56:18;;;;;;;;;11.00;10.00;;;;;14.85;100.00;102472.34;5054054;28;45439;-74
2023/10/05 06:58:43;;;;;;;;;9.33;6.67;;;;;14.92;100.00;102474.28;5054150;28;45705;-75
2023/10/05 07:01:09;;;;;;;;;5.67;5.67;;;;;14.98;100.00;102471.72;5053608;28;45307;-73
2023/10/05 07:03:36;;;;;;;;;14.00;8.00;;;;;15.03;100.00;102462.06;5048513;28;46711;-75
2023/10/05 07:06:04;;;;;;;;;13.00;6.75;;;;;15.12;100.00;102474.63;5010500;28;1152974;-73
2023/10/05 07:08:30;;;;;;;;;9.33;8.00;;;;;15.14;100.00;102481.78;5054437;28;45937;-73
2023/10/05 07:10:55;;;;;;;;;8.33;8.00;;;;;15.15;100.00;102470.25;5054712;28;45433;-76
2023/10/05 07:13:22;;;;;;;;;13.00;7.00;;;;;15.20;100.00;102473.91;5053052;28;61677;-75
2023/10/05 07:15:48;;;;;;;;;9.67;9.00;;;;;15.25;100.00;102487.31;5054033;28;45464;-72
2023/10/05 07:18:15;;;;;;;;;7.33;6.00;;;;;15.26;100.00;102481.09;5056287;28;46642;-74
2023/10/05 07:20:41;;;;;;;;;9.33;8.00;;;;;15.31;100.00;102476.75;5054620;27;45261;-72
2023/10/05 07:23:07;;;;;;;;;7.33;7.33;;;;;15.41;100.00;102481.38;5053035;28;45463;-73
2023/10/05 07:25:33;;;;;;;;;15.00;9.00;;;;;15.56;100.00;102470.09;5052873;28;45603;-73
2023/10/05 07:27:59;;;;;;;;;7.67;6.00;;;;;15.71;100.00;102462.41;5058506;28;46610;-73
2023/10/05 07:30:24;;;;;;;;;8.00;6.00;;;;;15.88;100.00;102472.41;5056538;28;45366;-73
2023/10/05 07:32:50;;;;;;;;;7.33;7.00;;;;;16.06;100.00;102474.47;5055340;28;45233;-77
2023/10/05 07:35:15;;;;;;;;;9.67;7.33;;;;;16.20;100.00;102473.78;5056340;28;45474;-73
2023/10/05 07:37:41;;;;;;;;;10.00;8.00;;;;;16.37;100.00;102468.69;5054139;28;69008;-73
2023/10/05 07:40:13;;;;;;;;;14.67;8.00;;;;;16.53;100.00;102476.88;5057496;28;45451;-74
2023/10/05 07:42:39;;;;;;;;;8.00;7.33;;;;;16.63;100.00;102474.34;5055267;28;45273;-76
2023/10/05 07:45:13;;;;;;;;;8.00;5.00;;;;;16.71;100.00;102490.47;5056534;28;45733;-73
2023/10/05 07:47:43;;;;;;;;;7.33;7.00;;;;;16.78;100.00;102476.34;5055369;28;45891;-73
2023/10/05 07:50:11;;;;;;;;;11.33;8.00;;;;;16.86;100.00;102479.09;5055417;28;45529;-73
2023/10/05 07:52:40;;;;;;;;;11.00;7.00;;;;;16.91;100.00;102475.59;5055774;28;45617;-75
2023/10/05 07:55:06;;;;;;;;;10.67;5.33;;;;;16.98;100.00;102465.88;5056310;28;45705;-75
2023/10/05 07:57:32;;;;;;;;;11.00;9.00;;;;;17.05;100.00;102464.19;5055596;28;46698;-74
2023/10/05 07:59:57;;;;;;;;;9.33;8.00;;;;;17.12;100.00;102466.03;5052822;28;63851;-75
2023/10/05 08:02:22;;;;;;;;;7.00;6.33;;;;;17.18;100.00;102472.31;5054634;28;63786;-74
2023/10/05 08:04:48;;;;;;;;;8.00;8.00;;;;;17.29;100.00;102483.09;5052766;28;62262;-74
2023/10/05 08:07:13;;;;;;;;;9.00;7.00;;;;;17.33;100.00;102484.94;5046124;28;53365;-73
2023/10/05 08:09:41;;;;;;;;;10.00;9.00;;;;;17.40;100.00;102483.22;5050971;28;62527;-73
2023/10/05 08:12:06;;;;;;;;;7.00;7.00;;;;;17.44;100.00;102493.03;5055800;28;45336;-74
2023/10/05 08:14:32;;;;;;;;;9.67;8.33;;;;;17.56;100.00;102509.16;5053044;28;61260;-74
2023/10/05 08:16:59;;;;;;;;;7.67;7.67;;;;;17.59;100.00;102503.88;5052466;28;46362;-76
2023/10/05 08:19:25;;;;;;;;;11.67;10.00;;;;;17.62;100.00;102501.19;5055817;28;45426;-73
2023/10/05 08:21:53;;;;;;;;;13.33;9.33;;;;;17.68;100.00;102508.38;5054827;28;45814;-74
2023/10/05 08:24:20;;;;;;;;;12.33;9.00;;;;;17.67;100.00;102518.16;5055821;28;45389;-73
2023/10/05 08:26:48;;;;;;;;;16.33;12.67;;;;;17.66;100.00;102539.53;5054611;28;45766;-75
2023/10/05 08:29:14;;;;;;;;;17.33;14.00;;;;;17.69;100.00;102548.47;5067860;28;45451;-74
2023/10/05 08:31:39;;;;;;;;;18.00;15.67;;;;;17.74;100.00;102560.16;5057724;28;45439;-74
2023/10/05 08:34:06;;;;;;;;;27.50;22.25;;;;;17.83;100.00;102556.63;5059374;28;57412;-73
2023/10/05 08:36:33;;;;;;;;;27.25;19.50;;;;;17.86;100.00;102539.75;5083439;22;46874;-74
2023/10/05 08:39:00;;;;;;;;;20.75;15.25;;;;;17.90;100.00;102525.53;5034135;22;45489;-76
2023/10/05 08:41:34;;;;;;;;;19.50;16.75;;;;;17.93;100.00;102514.84;5018949;28;45345;-73
2023/10/05 08:44:00;;;;;;;;;19.00;16.00;;;;;17.97;100.00;102522.00;5019261;28;45342;-73
2023/10/05 08:46:27;;;;;;;;;22.33;17.67;;;;;17.99;100.00;102525.59;5018843;28;45799;-75
2023/10/05 08:48:55;;;;;;;;;18.33;16.33;;;;;18.02;100.00;102538.97;5021065;28;45443;-73
2023/10/05 08:51:24;;;;;;;;;22.00;19.33;;;;;18.04;100.00;102547.91;5018321;28;45370;-73
2023/10/05 08:54:02;;;;;;;;;19.00;16.67;;;;;18.03;100.00;102549.69;5138756;22;45538;-73
2023/10/05 08:56:28;;;;;;;;;21.00;16.33;;;;;18.04;100.00;102542.56;5077664;28;46777;-73
2023/10/05 08:58:53;;;;;;;;;14.00;13.33;;;;;18.00;100.00;102544.34;5079060;28;45382;-73
2023/10/05 09:01:25;;;;;;;;;19.67;15.00;;;;;17.98;100.00;102546.06;5076666;28;45545;-75
2023/10/05 09:04:01;;;;;;;;;16.33;16.00;;;;;17.93;100.00;102553.16;5077915;28;45217;-73
2023/10/05 09:06:30;;;;;;;;;17.00;13.00;;;;;17.92;100.00;102550.47;5074578;22;46647;-73
2023/10/05 09:11:33;;;;;;;;;16.00;14.00;;;;;18.04;100.00;102521.16;5065643;22;45517;-74
2023/10/05 09:14:08;;;;;;;;;16.00;13.67;;;;;18.21;100.00;102526.63;5058369;28;45536;-74
2023/10/05 09:16:41;;;;;;;;;15.67;11.67;;;;;18.36;100.00;102528.50;5077441;22;48568;-75
2023/10/05 09:19:13;;;;;;;;;14.67;14.00;;;;;18.52;100.00;102514.31;5101600;27;46906;-73
2023/10/05 09:21:44;;;;;;;;;21.33;13.33;;;;;18.71;100.00;102524.28;5095028;27;45351;-73
2023/10/05 09:24:24;;;;;;;;;12.33;10.33;;;;;18.86;100.00;102527.91;5098193;27;45311;-73
2023/10/05 09:26:55;;;;;;;;;9.00;9.00;;;;;19.00;100.00;102528.84;5096462;27;45989;-74
2023/10/05 09:29:27;;;;;;;;;13.00;10.67;;;;;19.11;100.00;102522.63;5097438;27;45264;-73
2023/10/05 09:31:54;;;;;;;;;10.67;8.33;;;;;19.19;100.00;102527.13;5097783;27;45339;-73
2023/10/05 09:34:41;;;;;;;;;9.00;8.00;;;;;19.26;100.00;102518.19;5094941;27;45617;-73
2023/10/05 09:37:08;;;;;;;;;12.67;8.00;;;;;19.34;100.00;102511.97;5092188;27;47740;-76
2023/10/05 09:39:49;;;;;;;;;7.00;5.67;;;;;19.49;100.00;102516.44;5096236;27;45632;-73
2023/10/05 09:42:25;;;;;;;;;11.67;5.00;;;;;19.63;100.00;102513.81;5095125;27;47280;-73
2023/10/05 09:44:58;;;;;;;;;7.33;5.00;;;;;19.71;100.00;102511.13;5102522;27;45442;-73
2023/10/05 09:47:26;;;;;;;;;6.67;4.67;;;;;19.76;100.00;102507.56;5091893;27;46533;-73
2023/10/05 09:50:00;;;;;;;;;6.00;4.00;;;;;19.87;100.00;102521.88;5095588;27;45522;-74
2023/10/05 09:52:31;;;;;;;;;5.33;5.00;;;;;19.99;100.00;102518.28;5097240;27;45391;-74
2023/10/05 09:54:57;;;;;;;;;6.67;5.00;;;;;20.15;100.00;102505.72;5097632;27;45579;-73
2023/10/05 09:57:23;;;;;;;;;4.33;3.00;;;;;20.28;100.00;102504.78;5098439;27;46125;-73
2023/10/05 09:59:57;;;;;;;;;5.00;3.00;;;;;20.36;100.00;102505.69;5094450;27;45465;-75
2023/10/05 10:02:34;;;;;;;;;6.67;3.33;;;;;20.37;100.00;102499.41;5098411;27;45440;-73
2023/10/05 10:05:16;;;;;;;;;4.00;4.00;;;;;20.35;100.00;102479.75;5077826;27;45519;-73
2023/10/05 10:07:43;;;;;;;;;4.00;3.00;;;;;20.35;100.00;102457.41;5106870;27;46229;-74
2023/10/05 10:10:18;;;;;;;;;4.00;3.00;;;;;20.42;100.00;102465.41;5095796;27;45400;-74
2023/10/05 10:12:46;;;;;;;;;4.33;3.00;;;;;20.54;100.00;102458.25;5096155;27;45347;-73
2023/10/05 10:15:26;;;;;;;;;5.00;3.67;;;;;20.66;100.00;102452.81;5102368;27;45244;-75
2023/10/05 10:18:09;;;;;;;;;5.67;3.00;;;;;20.78;100.00;102467.97;5096727;27;45903;-73
2023/10/05 10:20:37;;;;;;;;;3.67;2.33;;;;;20.84;100.00;102470.63;5112712;27;46231;-71
2023/10/05 10:23:21;;;;;;;;;5.00;3.00;;;;;20.82;100.00;102454.50;5100108;27;45560;-71
2023/10/05 10:25:50;;;;;;;;;4.33;1.67;;;;;20.80;100.00;102432.16;5098116;27;45428;-71
2023/10/05 10:31:13;;;;;;;;;6.33;1.00;;;;;20.84;100.00;102436.63;5096916;27;45603;-75
2023/10/05 10:33:40;;;;;;;;;2.00;1.00;;;;;20.85;100.00;102438.38;5093572;27;45354;-70
2023/10/05 10:36:18;;;;;;;;;3.33;2.00;;;;;20.80;100.00;102450.06;5096805;27;45457;-70
2023/10/05 10:38:44;;;;;;;;;6.00;3.00;;;;;20.66;100.00;102445.63;5107355;27;45918;-72
2023/10/05 10:41:09;;;;;;;;;5.00;3.00;;;;;20.55;100.00;102458.22;5100522;27;45490;-70
2023/10/05 10:43:36;;;;;;;;;4.00;3.00;;;;;20.45;100.00;102461.81;5097071;27;45682;-72
2023/10/05 10:46:12;;;;;;;;;3.00;3.00;;;;;20.35;100.00;102458.28;5097304;27;45601;-70
2023/10/05 10:48:53;;;;;;;;;3.67;2.00;;;;;20.29;100.00;102463.66;5092444;27;46285;-71
2023/10/05 10:51:22;;;;;;;;;2.00;2.00;;;;;20.14;100.00;102471.78;5094717;27;45460;-72
2023/10/05 10:53:55;;;;;;;;;2.00;2.00;;;;;20.08;100.00;102470.00;5096823;27;45402;-70
2023/10/05 10:56:21;;;;;;;;;4.67;2.67;;;;;20.08;100.00;102463.72;5096611;27;45486;-74
2023/10/05 10:58:56;;;;;;;;;3.33;3.00;;;;;20.14;100.00;102466.41;5193171;22;45796;-72
2023/10/05 11:01:28;;;;;;;;;5.00;3.00;;;;;20.21;100.00;102461.91;5074206;27;45476;-71
2023/10/05 11:04:00;;;;;;;;;5.33;1.67;;;;;20.23;100.00;102460.09;5074912;27;45506;-70
2023/10/05 11:06:28;;;;;;;;;6.33;3.00;;;;;20.25;100.00;102461.00;5179318;22;45528;-71
2023/10/05 11:08:57;;;;;;;;;6.00;3.00;;;;;20.33;100.00;102462.75;5053278;28;46599;-71
2023/10/05 11:11:25;;;;;;;;;2.00;2.00;;;;;20.44;100.00;102467.19;5054159;28;45530;-73
2023/10/05 11:13:56;;;;;;;;;3.00;1.67;;;;;20.52;100.00;102468.09;5054198;28;45411;-71
2023/10/05 11:16:33;;;;;;;;;3.33;2.00;;;;;20.63;100.00;102453.72;5053928;28;45604;-73
2023/10/05 11:18:59;;;;;;;;;2.67;2.67;;;;;20.73;100.00;102457.25;5061275;28;45548;-72
2023/10/05 11:21:32;;;;;;;;;3.00;1.33;;;;;20.81;100.00;102459.88;5055585;28;46806;-74
2023/10/05 11:24:06;;;;;;;;;7.33;2.00;;;;;20.87;100.00;102449.13;5048269;28;46408;-72
2023/10/05 11:28:57;;;;;;;;;4.33;2.00;;;;;20.99;100.00;102446.38;5057277;28;45616;-73
2023/10/05 11:31:24;;;;;;;;;2.67;2.67;;;;;21.07;100.00;102443.63;5055187;28;45492;-73
2023/10/05 11:33:53;;;;;;;;;4.67;1.67;;;;;21.13;100.00;102433.72;5070997;28;45222;-75
2023/10/05 11:36:27;;;;;;;;;4.00;1.00;;;;;21.22;100.00;102427.41;5054679;28;45342;-75
2023/10/05 11:38:57;;;;;;;;;2.00;2.00;;;;;21.29;100.00;102418.38;5060262;28;46518;-76
2023/10/05 11:41:24;;;;;;;;;3.00;1.33;;;;;21.25;100.00;102407.66;5054689;28;45375;-74